Latest Weather Observations for Temora

IDN60801

Issued at 12:33 pm EDT Saturday 28 March 2015 (issued every 30 minutes, with the page automatically refreshed every 10 minutes)

About weather observations | Map of weather stations | Latest weather observations for NSW | Other Formats
Station Details ID: 073151 Name: TEMORA AIRPORT Lat: -34.43 Lon: 147.51 Height: 280.5 m
Data from the previous 72 hours. | See also: Recent months at Temora
Date/Time
EDT
Temp
°C
App
Temp
°C
Dew
Point
Rel
Hum
%
Delta-T
°C
Wind Press
QNH
hPa
Press
MSL
hPa
Rain
since 9 am
mm
Dir
 
Spd
km/h
Gust
km/h
Spd
kts
Gust
kts
28/12:30pm 20.1 16.3 2.0 30 8.4 S 11 20 6 11 1024.2 1023.2 0.0
28/12:00pm 18.6 14.5 2.0 33 7.6 SSW 13 19 7 10 1024.7 1023.7 0.0
28/11:30am 18.0 13.8 1.9 34 7.4 SSE 13 20 7 11 1024.7 1023.7 0.0
28/11:00am 17.2 13.2 3.1 39 6.5 SSW 13 20 7 11 1025.2 1024.2 0.0
28/10:30am 17.1 12.6 4.1 42 6.2 S 17 22 9 12 1025.4 1024.5 0.0
28/10:00am 16.1 12.7 4.2 45 5.6 SW 11 17 6 9 1025.3 1024.4 0.0
28/09:30am 14.0 11.4 5.9 58 3.9 SSW 9 13 5 7 1024.8 1023.8 0.0
28/08:30am 6.9 5.6 3.9 81 1.3 CALM 0 0 0 0 1024.6 1023.6 0.0
28/08:00am 3.7 2.0 1.7 87 0.8 CALM 0 0 0 0 1024.6 1023.6 0.0
28/07:30am 2.5 -0.5 0.6 87 0.7 SSW 6 7 3 4 1024.2 1023.2 0.0
28/07:00am 3.2 0.0 0.9 85 0.9 S 7 9 4 5 1024.1 1023.1 0.0
28/06:30am 3.9 0.5 1.8 86 0.8 S 9 9 5 5 1024.2 1023.2 0.0
28/05:30am 4.3 1.4 1.5 82 1.1 SSW 6 7 3 4 1023.6 1022.6 0.0
28/05:00am 4.6 1.6 1.8 82 1.1 S 7 11 4 6 1023.3 1022.3 0.0
28/04:30am 5.0 2.2 2.2 82 1.1 SSW 6 9 3 5 1023.2 1022.2 0.0
28/04:00am 5.0 2.0 2.0 81 1.2 S 7 7 4 4 1023.1 1022.1 0.0
28/03:30am 5.4 2.6 2.1 79 1.4 SSW 6 9 3 5 1023.2 1022.2 0.0
28/03:00am 6.3 3.2 1.6 72 1.9 SSW 7 7 4 4 1023.4 1022.4 0.0
28/02:30am 8.2 5.7 3.5 72 2.0 S 6 7 3 4 1023.7 1022.7 0.0
28/02:00am 7.9 5.0 2.6 69 2.2 S 7 7 4 4 1023.7 1022.7 0.0
28/01:30am 9.7 6.9 3.4 65 2.8 S 7 9 4 5 1023.8 1022.8 0.0
28/01:00am 10.1 7.5 3.2 62 3.0 SSW 6 7 3 4 1023.9 1022.9 0.0
28/12:30am 10.6 7.5 3.4 61 3.2 SSW 9 11 5 6 1024.1 1023.1 0.0
28/12:00am 12.3 9.6 3.8 56 3.8 SSW 7 11 4 6 1024.2 1023.2 0.0
 
Date/Time
EDT
Temp
°C
App
Temp
°C
Dew
Point
Rel
Hum
%
Delta-T
°C
Wind Press
QNH
hPa
Press
MSL
hPa
Rain
since 9 am
mm
Dir
 
Spd
km/h
Gust
km/h
Spd
kts
Gust
kts
27/11:30pm 12.8 9.7 3.7 54 4.1 SW 9 13 5 7 1024.1 1023.1 0.0
27/11:00pm 13.2 10.1 3.8 53 4.3 SW 9 13 5 7 1024.1 1023.1 0.0
27/10:30pm 13.5 10.4 3.6 51 4.5 SSW 9 11 5 6 1024.0 1023.0 0.0
27/10:00pm 14.2 10.8 3.9 50 4.7 SW 11 17 6 9 1023.8 1022.8 0.0
27/09:30pm 14.2 11.2 3.9 50 4.8 SW 9 13 5 7 1023.7 1022.7 0.0
27/09:00pm 14.3 11.2 3.5 48 4.9 SW 9 15 5 8 1023.4 1022.4 0.0
27/08:30pm 14.9 11.4 3.4 46 5.3 SW 11 15 6 8 1023.1 1022.1 0.0
27/08:00pm 16.1 12.3 3.9 44 5.7 SW 13 19 7 10 1022.7 1021.7 0.0
27/07:30pm 17.1 12.9 3.8 41 6.3 SW 15 24 8 13 1022.3 1021.3 0.0
27/07:00pm 18.3 13.1 3.8 38 6.9 SW 20 28 11 15 1021.9 1020.9 0.0
27/06:30pm 19.5 14.3 3.6 35 7.6 SW 20 30 11 16 1021.7 1020.7 0.0
27/06:00pm 20.1 14.2 3.8 34 7.9 SW 24 32 13 17 1021.5 1020.5 0.0
27/05:30pm 20.6 14.3 3.8 33 8.2 WSW 26 39 14 21 1021.4 1020.4 0.0
27/05:00pm 21.0 15.1 3.7 32 8.4 SW 24 37 13 20 1021.4 1020.4 0.0
27/04:30pm 21.6 16.1 4.2 32 8.6 SW 22 33 12 18 1021.4 1020.4 0.0
27/04:00pm 21.5 15.6 3.7 31 8.6 SW 24 41 13 22 1021.6 1020.6 0.0
27/03:30pm 20.7 14.1 4.3 34 8.0 SW 28 43 15 23 1021.9 1020.9 0.0
27/03:00pm 20.7 14.6 4.7 35 7.9 WSW 26 39 14 21 1022.3 1021.3 0.0
27/02:30pm 19.8 14.1 5.1 38 7.3 WSW 24 35 13 19 1022.7 1021.7 0.0
27/02:00pm 19.4 13.4 5.1 39 7.0 SW 26 39 14 21 1023.1 1022.1 0.0
27/01:30pm 19.6 14.4 5.6 40 7.0 SW 22 33 12 18 1023.5 1022.5 0.0
27/01:00pm 18.6 13.4 5.5 42 6.5 SW 22 32 12 17 1023.9 1022.9 0.0
27/12:30pm 18.5 12.3 6.0 44 6.2 WSW 28 39 15 21 1024.5 1023.5 0.0
27/12:00pm 17.0 12.4 6.5 50 5.2 SW 20 35 11 19 1024.8 1023.8 0.0
27/11:30am 16.4 11.8 6.5 52 4.9 SW 20 32 11 17 1025.0 1024.0 0.0
27/11:00am 15.3 10.9 6.6 56 4.3 SW 19 30 10 16 1025.3 1024.4 0.0
27/10:30am 14.3 9.7 6.4 59 3.9 WSW 20 28 11 15 1025.4 1024.5 0.0
27/10:00am 13.7 9.7 6.6 62 3.5 WSW 17 24 9 13 1025.2 1024.2 0.0
27/09:30am 12.6 7.9 6.2 65 3.1 SW 20 30 11 16 1025.1 1024.1 0.0
27/09:00am 11.3 6.5 5.4 67 2.7 WSW 20 28 11 15 1025.0 1024.0 0.0
27/08:30am 10.2 5.8 4.8 69 2.5 WSW 17 28 9 15 1024.8 1023.8 0.0
27/08:00am 9.0 4.8 3.8 70 2.3 WSW 15 20 8 11 1024.7 1023.7 0.0
27/07:30am 7.8 3.8 2.7 70 2.2 WSW 13 19 7 10 1024.2 1023.2 0.0
27/07:00am 7.7 3.7 2.6 70 2.2 WSW 13 17 7 9 1024.0 1023.0 0.0
27/06:30am 7.3 3.6 2.4 71 2.1 WSW 11 17 6 9 1023.7 1022.7 0.0
27/06:00am 7.7 4.0 2.2 68 2.3 W 11 17 6 9 1023.3 1022.3 0.0
27/05:30am 6.8 2.6 1.7 70 2.1 WSW 13 15 7 8 1023.1 1022.1 0.0
27/05:00am 5.9 1.9 0.5 68 2.1 W 11 13 6 7 1023.1 1022.1 0.0
27/04:30am 5.4 1.7 -0.2 67 2.2 W 9 11 5 6 1023.1 1022.1 0.0
27/04:00am 6.6 2.5 0.1 63 2.6 W 11 11 6 6 1023.2 1022.2 0.0
27/03:30am 6.9 2.9 0.6 64 2.5 W 11 11 6 6 1023.4 1022.4 0.0
27/03:00am 5.8 2.1 0.2 67 2.2 W 9 11 5 6 1023.6 1022.6 0.0
27/02:30am 4.5 2.3 -1.5 65 2.2 CALM 0 2 0 1 1023.8 1022.8 0.0
27/02:00am 5.3 2.1 -0.7 65 2.3 SW 6 7 3 4 1023.8 1022.8 0.0
27/01:30am 6.1 2.9 -0.8 61 2.7 SSW 6 6 3 3 1023.7 1022.7 0.0
27/01:00am 6.9 3.6 -1.0 57 3.0 SSW 6 7 3 4 1023.7 1022.7 0.0
27/12:30am 7.9 5.9 -0.3 56 3.3 CALM 0 0 0 0 1023.9 1022.9 0.0
27/12:00am 8.6 6.1 -1.2 50 3.8 W 2 6 1 3 1023.9 1022.9 0.0
 
Date/Time
EDT
Temp
°C
App
Temp
°C
Dew
Point
Rel
Hum
%
Delta-T
°C
Wind Press
QNH
hPa
Press
MSL
hPa
Rain
since 9 am
mm
Dir
 
Spd
km/h
Gust
km/h
Spd
kts
Gust
kts
26/11:30pm 9.1 5.8 -1.3 48 4.1 W 6 9 3 5 1023.9 1022.9 0.0
26/11:00pm 10.1 6.2 -1.3 45 4.5 W 9 9 5 5 1024.0 1023.0 0.0
26/10:30pm 10.6 6.8 -1.1 44 4.7 W 9 11 5 6 1024.1 1023.1 0.0
26/10:00pm 11.4 7.5 -1.4 41 5.1 W 9 11 5 6 1023.9 1022.9 0.0
26/09:30pm 12.1 7.8 -1.8 38 5.6 WSW 11 13 6 7 1023.7 1022.7 0.0
26/09:00pm 13.2 8.9 -1.9 35 6.1 WSW 11 13 6 7 1023.4 1022.4 0.0
26/08:30pm 14.4 9.3 -2.1 32 6.7 WSW 15 20 8 11 1023.2 1022.2 0.0
26/08:00pm 15.2 10.1 -2.2 30 7.1 WSW 15 20 8 11 1022.7 1021.7 0.0
26/07:30pm 15.6 10.4 -2.8 28 7.5 WSW 15 20 8 11 1022.3 1021.3 0.0
26/07:00pm 16.9 10.4 -2.7 26 8.1 WSW 22 33 12 18 1021.8 1020.8 0.0
26/06:30pm 17.9 11.8 -2.4 25 8.5 W 20 32 11 17 1021.4 1020.4 0.0
26/06:00pm 18.5 12.4 -2.4 24 8.8 WSW 20 30 11 16 1021.0 1020.0 0.0
26/05:30pm 19.0 12.6 -2.0 24 9.0 WSW 22 30 12 16 1020.8 1019.8 0.0
26/05:00pm 19.2 12.5 -1.3 25 8.9 WSW 24 35 13 19 1020.8 1019.8 0.0
26/04:30pm 19.0 11.6 -0.9 26 8.7 WSW 28 43 15 23 1021.0 1020.0 0.0
26/04:17pm 19.2 11.7 -1.3 25 8.9 WSW 28 46 15 25 1020.9 1019.9 0.0
26/04:00pm 19.2 12.6 -0.7 26 8.7 WSW 24 41 13 22 1020.8 1019.8 0.0
26/03:49pm 19.5 12.1 -1.0 25 9.0 WSW 28 46 15 25 1020.9 1019.9 0.0
26/03:30pm 19.3 11.8 -1.2 25 8.9 WSW 28 43 15 23 1021.0 1020.0 0.0
26/03:00pm 19.5 12.8 -1.0 25 8.9 WSW 24 39 13 21 1020.9 1019.9 0.0
26/02:43pm 19.6 11.7 -1.5 24 9.1 W 30 50 16 27 1020.8 1019.8 0.0
26/02:30pm 19.9 12.9 -0.7 25 9.1 W 26 41 14 22 1020.8 1019.8 0.0
26/02:04pm 19.4 12.5 2.3 32 8.0 WSW 28 48 15 26 1021.0 1020.0 0.0
26/02:00pm 19.3 13.9 2.2 32 7.9 WSW 20 46 11 25 1020.9 1019.9 0.0
26/01:30pm 18.8 12.4 3.4 36 7.3 WSW 26 43 14 23 1021.2 1020.2 0.0
26/01:00pm 19.5 13.6 4.0 36 7.5 WSW 24 33 13 18 1021.3 1020.3 0.0
26/12:30pm 19.6 14.0 5.3 39 7.1 WSW 24 39 13 21 1021.4 1020.4 0.0
26/12:00pm 18.5 13.3 5.4 42 6.4 W 22 35 12 19 1021.7 1020.7 0.0
26/11:30am 18.4 13.5 4.9 41 6.6 W 20 32 11 17 1021.7 1020.7 0.0
26/11:00am 16.4 12.1 5.1 47 5.4 SW 17 35 9 19 1021.6 1020.6 0.0
26/10:30am 15.9 10.1 4.3 46 5.5 WSW 24 32 13 17 1021.6 1020.6 0.0
26/10:00am 16.6 11.2 2.2 38 6.5 W 20 30 11 16 1021.2 1020.2 0.0
26/09:30am 15.8 9.7 2.6 41 6.0 W 24 32 13 17 1021.0 1020.0 0.0
26/09:00am 12.4 9.9 3.9 56 3.9 NW 6 9 3 5 1020.8 1019.8 0.0
26/08:30am 8.7 7.4 3.9 72 2.1 CALM 0 0 0 0 1020.4 1019.4 0.0
26/08:00am 5.8 3.3 3.6 86 0.9 S 6 7 3 4 1020.1 1019.1 0.0
26/07:30am 5.1 2.2 2.6 84 1.0 SSW 7 9 4 5 1019.9 1018.9 0.0
26/07:00am 5.3 3.6 1.6 77 1.5 CALM 0 0 0 0 1019.6 1018.6 0.0
26/06:30am 6.6 5.0 2.7 76 1.6 CALM 0 0 0 0 1019.4 1018.4 0.0
26/06:00am 7.3 5.7 2.2 70 2.1 CALM 0 0 0 0 1019.1 1018.0 0.0
26/05:30am 8.6 7.0 2.4 65 2.6 CALM 0 0 0 0 1019.0 1017.9 0.0
26/05:00am 9.0 7.4 2.3 63 2.9 CALM 0 0 0 0 1018.8 1017.7 0.0
26/04:30am 9.3 7.7 2.2 61 3.0 CALM 0 0 0 0 1018.6 1017.5 0.0
26/04:00am 11.1 9.0 1.9 53 4.0 SSW 2 6 1 3 1018.6 1017.5 0.0
26/03:30am 12.5 9.7 2.1 49 4.6 SSW 6 9 3 5 1018.7 1017.6 0.0
26/03:00am 13.0 10.2 3.1 51 4.5 SSW 7 11 4 6 1018.7 1017.6 0.0
26/02:30am 12.8 9.8 4.3 56 3.9 SW 9 11 5 6 1018.8 1017.7 0.0
26/02:00am 11.6 9.1 4.8 63 3.1 WSW 7 13 4 7 1018.8 1017.7 0.0
26/01:30am 12.1 11.0 5.3 63 3.2 CALM 0 0 0 0 1018.8 1017.7 0.0
26/01:00am 12.5 11.5 5.7 63 3.2 CALM 0 0 0 0 1018.6 1017.5 0.0
26/12:30am 13.0 12.1 5.9 62 3.4 CALM 0 0 0 0 1018.3 1017.3 0.0
26/12:00am 13.6 11.7 4.7 55 4.2 W 4 7 2 4 1018.2 1017.2 0.0
 
Date/Time
EDT
Temp
°C
App
Temp
°C
Dew
Point
Rel
Hum
%
Delta-T
°C
Wind Press
QNH
hPa
Press
MSL
hPa
Rain
since 9 am
mm
Dir
 
Spd
km/h
Gust
km/h
Spd
kts
Gust
kts
25/11:30pm 14.7 11.9 5.2 53 4.5 W 9 11 5 6 1018.7 1017.6 0.0
25/11:00pm 15.8 12.7 5.4 50 5.0 W 11 13 6 7 1018.6 1017.5 0.0
25/10:30pm 16.6 13.1 5.6 48 5.4 W 13 19 7 10 1018.2 1017.2 0.0
25/10:00pm 16.5 13.5 5.8 49 5.2 W 11 15 6 8 1018.0 1017.0 0.0
25/09:30pm 16.1 13.0 5.7 50 5.1 W 11 15 6 8 1017.8 1016.8 0.0
25/09:00pm 16.5 13.0 5.5 48 5.4 W 13 17 7 9 1017.8 1016.8 0.0
25/08:30pm 16.2 13.2 4.3 45 5.6 W 9 13 5 7 1017.4 1016.4 0.0
25/08:00pm 16.9 14.4 3.6 41 6.2 WNW 6 7 3 4 1016.9 1015.9 0.0
25/07:30pm 18.6 15.9 3.6 37 7.1 NW 7 7 4 4 1016.4 1015.4 0.0
25/07:00pm 20.5 17.0 3.7 33 8.1 WNW 11 15 6 8 1016.2 1015.2 0.0
25/06:30pm 20.7 16.4 3.4 32 8.3 NW 15 19 8 10 1016.2 1015.2 0.0
25/06:00pm 21.3 17.6 2.6 29 8.9 NW 11 19 6 10 1015.8 1014.7 0.0
25/05:30pm 21.5 16.6 1.7 27 9.3 NW 17 24 9 13 1015.7 1014.6 0.0
25/05:00pm 22.2 17.5 0.7 24 9.9 NNW 15 22 8 12 1015.4 1014.3 0.0
25/04:30pm 23.1 18.2 2.0 25 10.1 NNW 17 35 9 19 1015.4 1014.3 0.0
25/04:00pm 22.5 17.7 2.6 27 9.6 N 17 26 9 14 1015.5 1014.4 0.0
25/03:30pm 22.0 17.5 2.2 27 9.4 N 15 24 8 13 1016.0 1015.0 0.0
25/03:00pm 22.4 17.9 4.0 30 9.1 NNW 17 28 9 15 1016.4 1015.4 0.0
25/02:30pm 22.0 16.5 4.1 31 8.8 NNW 22 33 12 18 1016.9 1015.9 0.0
25/02:00pm 21.0 16.2 4.6 34 8.1 N 19 28 10 15 1017.1 1016.1 0.0
25/01:30pm 21.4 17.5 5.3 35 8.1 N 15 28 8 15 1017.4 1016.4 0.0
25/01:00pm 21.6 17.0 5.5 35 8.1 NNW 19 28 10 15 1018.0 1017.0 0.0

Other Formats:

Comma delimited format used in spreadsheet applications
http://www.bom.gov.au/fwo/IDN60801/IDN60801.95722.axf

JavaScript Object Notation format (JSON) in row-major order
http://www.bom.gov.au/fwo/IDN60801/IDN60801.95722.json